Mercur 301 — YP2351 — position and weather

sailwx.info

Track history (hours):
 
Tides and Currents Weather Stations Pressure Air Temp Water Temp Dewpoint Dewpoint Depression Visibility Wind Speed Wind Dir Waves Ship Positions

Mercur 301

Last reported at 2018-Jul-19 21:10 UTC. Time now 2018-Jul-21 09:44 UTC.
Position N 44°30' E 022°12'.

Length 35 m; draft 2.6 m.

Type: Ship. MMSI: 264162351.

Date/timePositionNaut miles runAvg speedWind from/ knotsBaromVisibWave heightAir tempDewpointWater temp
2018-Jul-19 21:10N 44°30' E 022°12'1 6.6
2018-Jul-19 21:01N 44°29' E 022°12'3 5.7
2018-Jul-19 20:31N 44°28' E 022°08'3 6.3
2018-Jul-19 20:01N 44°31' E 022°05'3 6.2
2018-Jul-19 19:30N 44°33' E 022°02'16 5.9
2018-Jul-19 16:52N 44°40' E 021°42'2 6.3
2018-Jul-19 16:31N 44°41' E 021°40'3 6.2
2018-Jul-19 16:00N 44°43' E 021°37'3 6.4
2018-Jul-19 15:30N 44°46' E 021°34'2 4.3
2018-Jul-19 14:57N 44°46' E 021°31'0 0.1
2018-Jul-19 09:40N 44°46' E 021°31'0 1.8
2018-Jul-19 09:28N 44°46' E 021°31'2 3.4
2018-Jul-19 08:59N 44°46' E 021°28'11 5.3
2018-Jul-19 06:56N 44°47' E 021°13'3 6.4
2018-Jul-19 06:27N 44°45' E 021°09'3 5.9
2018-Jul-19 06:01N 44°44' E 021°06'3 6.0
2018-Jul-19 05:31N 44°43' E 021°02'3 5.9
2018-Jul-19 05:00N 44°42' E 020°58'1 0.1
2018-Jul-18 22:04N 44°42' E 020°58'0 0.4
2018-Jul-18 21:58N 44°42' E 020°58'0 0.7
2018-Jul-18 21:30N 44°42' E 020°58'2 4.3
2018-Jul-18 21:00N 44°40' E 020°56'0 0.1
2018-Jul-18 20:30N 44°40' E 020°56'0 0.6
2018-Jul-18 20:00N 44°40' E 020°55'0 0.7
2018-Jul-18 19:31N 44°40' E 020°56'0 0.3
2018-Jul-18 19:00N 44°41' E 020°56'2 4.3
2018-Jul-18 18:30N 44°40' E 020°53'3 6.1
2018-Jul-18 18:00N 44°39' E 020°49'3 5.7
2018-Jul-18 17:30N 44°40' E 020°45'3 5.9
2018-Jul-18 17:00N 44°42' E 020°42'3 5.9
2018-Jul-18 16:31N 44°45' E 020°39'3 5.3
2018-Jul-18 16:00N 44°47' E 020°38'3 5.8
2018-Jul-18 15:30N 44°50' E 020°39'3 5.3
2018-Jul-18 15:00N 44°51' E 020°36'3 5.7
2018-Jul-18 14:30N 44°50' E 020°32'6 5.6
2018-Jul-18 13:30N 44°51' E 020°25'3 5.9
2018-Jul-18 13:01N 44°53' E 020°21'3 5.8
2018-Jul-18 12:30N 44°56' E 020°19'3 6.0
2018-Jul-18 12:01N 44°58' E 020°17'3 5.2
2018-Jul-18 11:30N 45°00' E 020°20'6 5.0
2018-Jul-18 10:17N 45°06' E 020°18'4 6.2
2018-Jul-18 09:41N 45°09' E 020°15'1 6.3
2018-Jul-18 09:31N 45°10' E 020°14'3 6.0
2018-Jul-18 09:00N 45°11' E 020°10'3 6.2
2018-Jul-18 08:31N 45°10' E 020°06'3 6.2
2018-Jul-18 08:01N 45°10' E 020°02'3 5.8
2018-Jul-18 07:30N 45°11' E 019°58'3 5.9
2018-Jul-18 07:00N 45°14' E 019°55'2 3.7
2018-Jul-18 06:31N 45°15' E 019°54'0 0.1
2018-Jul-18 06:01N 45°15' E 019°54'0 0.3
2018-Jul-18 05:31N 45°15' E 019°54'0 0.3
2018-Jul-18 05:01N 45°15' E 019°54'2 3.9
2018-Jul-18 04:30N 45°14' E 019°51'2 3.1
2018-Jul-18 04:00N 45°13' E 019°50'3 5.3
2018-Jul-18 03:31N 45°16' E 019°52'2 3.3
2018-Jul-18 03:01N 45°15' E 019°54'2 3.8
2018-Jul-18 02:30N 45°14' E 019°51'2 3.7
2018-Jul-18 01:59N 45°13' E 019°49'0 0.0
2018-Jul-18 01:29N 45°13' E 019°49'0 0.0
2018-Jul-18 00:59N 45°13' E 019°49'0 0.0
2018-Jul-18 00:26N 45°13' E 019°49'0 0.0
2018-Jul-17 23:59N 45°13' E 019°49'0 0.0
2018-Jul-17 23:29N 45°13' E 019°49'0 0.0
2018-Jul-17 22:59N 45°13' E 019°49'0 0.0
2018-Jul-17 22:29N 45°13' E 019°49'0 0.0
2018-Jul-17 21:59N 45°13' E 019°49'0 0.0
2018-Jul-17 21:29N 45°13' E 019°49'0 0.0
2018-Jul-17 20:59N 45°13' E 019°49'0 0.0
2018-Jul-17 20:29N 45°13' E 019°49'1 1.9
2018-Jul-17 20:01N 45°14' E 019°50'3 5.2
2018-Jul-17 19:31N 45°16' E 019°53'1 1.7
2018-Jul-17 19:01N 45°15' E 019°54'3 6.0
2018-Jul-17 18:31N 45°14' E 019°50'1 1.4
2018-Jul-17 18:00N 45°13' E 019°49'0 0.2
2018-Jul-17 17:30N 45°13' E 019°49'1 2.4
2018-Jul-17 17:00N 45°13' E 019°48'3 5.4
2018-Jul-17 16:31N 45°14' E 019°44'4 6.3
2018-Jul-17 15:52N 45°13' E 019°38'2 6.4
2018-Jul-17 15:30N 45°13' E 019°35'3 5.8
2018-Jul-17 14:55N 45°15' E 019°32'3 6.4
2018-Jul-17 14:30N 45°14' E 019°29'3 6.3
2018-Jul-17 14:01N 45°14' E 019°24'3 6.4
2018-Jul-17 13:31N 45°14' E 019°20'3 6.1
2018-Jul-17 13:01N 45°15' E 019°15'3 6.4
2018-Jul-17 12:30N 45°16' E 019°11'3 6.5
2018-Jul-17 12:00N 45°17' E 019°07'3 5.7
2018-Jul-17 11:30N 45°20' E 019°06'3 6.0
2018-Jul-17 11:00N 45°21' E 019°01'3 6.3
2018-Jul-17 10:30N 45°23' E 018°58'3 5.5
2018-Jul-17 10:00N 45°24' E 019°01'3 5.3
2018-Jul-17 09:30N 45°27' E 018°59'3 6.1
2018-Jul-17 09:01N 45°29' E 018°60'3 5.5
2018-Jul-17 08:30N 45°29' E 019°04'2 5.0
2018-Jul-17 08:01N 45°31' E 019°06'3 5.9
2018-Jul-17 07:30N 45°32' E 019°02'2 3.2
2018-Jul-17 07:00N 45°32' E 018°60'3 5.5
2018-Jul-17 06:30N 45°33' E 018°56'4 4.4
2018-Jul-17 05:35N 45°37' E 018°54'0 5.4
2018-Jul-17 05:30N 45°37' E 018°54'2 5.0
2018-Jul-17 05:01N 45°39' E 018°57'3 4.1
2018-Jul-17 04:12N 45°42' E 018°55'1 5.9
2018-Jul-17 04:01N 45°43' E 018°54'23 1.1
2018-Jul-16 06:45N 46°05' E 018°46'2 5.4
2018-Jul-16 06:18N 46°07' E 018°48'2 5.8
2018-Jul-16 06:00N 46°08' E 018°50'3 4.6
2018-Jul-16 05:27N 46°10' E 018°52'  
2018-Jul-12 07:06N 46°00' E 018°41'0 0.7
2018-Jul-12 07:00N 46°00' E 018°41'0 0.0
2018-Jul-12 06:30N 46°00' E 018°41'0 0.0
2018-Jul-12 06:00N 46°00' E 018°41'0 0.0
2018-Jul-12 05:30N 46°00' E 018°41'0 0.0
2018-Jul-12 05:00N 46°00' E 018°41'0 0.0
2018-Jul-12 04:30N 46°00' E 018°41'0 0.0
2018-Jul-12 04:00N 46°00' E 018°41'0 0.0
2018-Jul-12 03:30N 46°00' E 018°41'0 0.0
2018-Jul-12 02:58N 46°00' E 018°41'0 0.0
2018-Jul-12 02:30N 46°00' E 018°41'0 0.0
2018-Jul-12 01:58N 46°00' E 018°41'0 0.0
2018-Jul-12 01:30N 46°00' E 018°41'0 0.0
2018-Jul-12 01:00N 46°00' E 018°41'0 0.0
2018-Jul-12 00:30N 46°00' E 018°41'2 3.1
2018-Jul-12 00:00N 45°59' E 018°43'2 3.7
2018-Jul-11 23:29N 45°58' E 018°45'2 3.5
2018-Jul-11 22:57N 45°56' E 018°46'2 3.7
2018-Jul-11 22:31N 45°55' E 018°48'2 3.2
2018-Jul-11 22:01N 45°54' E 018°50'2 3.9
2018-Jul-11 21:30N 45°52' E 018°50'2 3.3
2018-Jul-11 21:00N 45°51' E 018°51'2 4.0
2018-Jul-11 20:30N 45°49' E 018°51'2 3.6
2018-Jul-11 20:01N 45°47' E 018°52'2 3.3
2018-Jul-11 19:31N 45°46' E 018°54'2 3.9
2018-Jul-11 19:01N 45°44' E 018°54'2 3.9
2018-Jul-11 18:30N 45°42' E 018°55'2 3.8
2018-Jul-11 18:01N 45°41' E 018°57'1 2.9
2018-Jul-11 17:31N 45°39' E 018°58'2 4.2
2018-Jul-11 17:01N 45°38' E 018°56'2 3.4
2018-Jul-11 16:31N 45°36' E 018°54'2 3.2
2018-Jul-11 16:01N 45°35' E 018°54'2 3.3
2018-Jul-11 15:31N 45°33' E 018°54'2 3.7
2018-Jul-11 15:01N 45°32' E 018°57'2 3.6
2018-Jul-11 14:31N 45°32' E 018°59'2 3.5
2018-Jul-11 14:01N 45°33' E 019°01'2 3.3
2018-Jul-11 13:30N 45°32' E 019°02'2 3.6
2018-Jul-11 13:01N 45°32' E 019°05'2 3.4
2018-Jul-11 12:31N 45°30' E 019°06'2 3.6
2018-Jul-11 12:01N 45°29' E 019°04'2 4.1
2018-Jul-11 11:31N 45°29' E 019°01'2 3.0
2018-Jul-11 11:01N 45°29' E 018°59'2 3.8
2018-Jul-11 10:31N 45°27' E 018°59'2 3.6
2018-Jul-11 10:00N 45°26' E 019°01'0 0.3
2018-Jul-11 09:31N 45°26' E 019°01'2 3.2
2018-Jul-11 09:00N 45°24' E 019°01'2 3.7
2018-Jul-11 08:31N 45°24' E 018°58'2 3.3
2018-Jul-11 08:00N 45°22' E 018°59'0 0.9
2018-Jul-11 07:30N 45°22' E 018°60'0 0.6
2018-Jul-11 07:00N 45°22' E 018°59'0 0.0
2018-Jul-11 06:30N 45°22' E 018°59'0 0.0
2018-Jul-11 06:00N 45°22' E 018°59'0 0.0
2018-Jul-11 05:30N 45°22' E 018°59'0 0.3
2018-Jul-11 04:56N 45°22' E 018°59'0 0.2
2018-Jul-11 04:30N 45°22' E 018°60'0 0.1
2018-Jul-11 04:00N 45°22' E 018°60'0 0.0
2018-Jul-11 03:31N 45°22' E 018°60'0 0.0
2018-Jul-11 03:00N 45°22' E 018°60'0 0.0
2018-Jul-11 02:30N 45°22' E 018°60'0 0.0
2018-Jul-11 02:01N 45°22' E 018°60'0 0.0
2018-Jul-11 01:31N 45°22' E 018°60'0 0.0
2018-Jul-11 01:00N 45°22' E 018°60'0 0.0
2018-Jul-11 00:30N 45°22' E 018°60'0 0.0
2018-Jul-11 00:00N 45°22' E 018°60'0 0.0
2018-Jul-10 23:31N 45°22' E 018°60'0 0.0
2018-Jul-10 23:00N 45°22' E 018°60'0 0.0
2018-Jul-10 22:30N 45°22' E 018°60'0 0.0
2018-Jul-10 22:00N 45°22' E 018°60'0 0.2
2018-Jul-10 21:30N 45°22' E 018°60'2 3.5
2018-Jul-10 21:00N 45°21' E 019°02'2 4.1
2018-Jul-10 20:31N 45°21' E 019°05'2 3.4
2018-Jul-10 20:00N 45°19' E 019°06'2 3.3
2018-Jul-10 19:28N 45°18' E 019°07'2 3.9
2018-Jul-10 19:00N 45°17' E 019°09'2 3.7
2018-Jul-10 18:30N 45°16' E 019°12'2 3.8
2018-Jul-10 18:00N 45°15' E 019°14'2 3.3
2018-Jul-10 17:30N 45°14' E 019°16'2 3.8
2018-Jul-10 17:00N 45°14' E 019°19'2 3.9
2018-Jul-10 16:30N 45°14' E 019°21'2 3.9
2018-Jul-10 16:01N 45°14' E 019°24'4 3.7
2018-Jul-10 14:52N 45°15' E 019°30'1 3.7
2018-Jul-10 14:30N 45°15' E 019°32'4 2.9
2018-Jul-10 13:07N 45°13' E 019°36'0 4.0
2018-Jul-10 13:00N 45°13' E 019°37'2 3.6
2018-Jul-10 12:30N 45°13' E 019°40'2 3.5
2018-Jul-10 12:01N 45°14' E 019°42'2 3.5
2018-Jul-10 11:31N 45°14' E 019°44'2 3.4
2018-Jul-10 11:00N 45°13' E 019°47'2 3.4
2018-Jul-10 10:31N 45°13' E 019°49'1 1.1
2018-Jul-10 10:01N 45°14' E 019°50'2 4.2
2018-Jul-10 09:31N 45°15' E 019°51'0 0.0
2018-Jul-10 09:01N 45°15' E 019°51'0 0.0
2018-Jul-10 08:30N 45°15' E 019°51'0 0.0
2018-Jul-10 08:01N 45°15' E 019°51'0 0.0
2018-Jul-10 07:31N 45°15' E 019°51'1 1.8
2018-Jul-10 07:01N 45°14' E 019°52'2 3.3
2018-Jul-10 06:30N 45°14' E 019°50'0 0.0
2018-Jul-10 06:01N 45°14' E 019°50'0 0.0
2018-Jul-10 05:30N 45°14' E 019°50'0 0.0
2018-Jul-10 05:01N 45°14' E 019°50'0 0.0
2018-Jul-10 04:31N 45°14' E 019°50'0 0.0
2018-Jul-10 04:01N 45°14' E 019°50'0 0.0
2018-Jul-10 03:31N 45°14' E 019°50'0 0.0
2018-Jul-10 03:01N 45°14' E 019°50'0 0.0
2018-Jul-10 02:31N 45°14' E 019°50'0 0.0
2018-Jul-10 01:55N 45°14' E 019°50'0 0.0
2018-Jul-10 01:31N 45°14' E 019°50'0 0.0
2018-Jul-10 01:01N 45°14' E 019°50'0 0.0
2018-Jul-10 00:30N 45°14' E 019°50'0 0.0
2018-Jul-10 00:01N 45°14' E 019°50'0 0.0
2018-Jul-09 23:31N 45°14' E 019°50'0 0.0
2018-Jul-09 23:01N 45°14' E 019°50'0 0.0
2018-Jul-09 22:30N 45°14' E 019°50'0 0.0
2018-Jul-09 22:01N 45°14' E 019°50'0 0.0
2018-Jul-09 21:30N 45°14' E 019°50'  
Track history (hours):
 
Tides and Currents Weather Stations Pressure Air Temp Water Temp Dewpoint Dewpoint Depression Visibility Wind Speed Wind Dir Waves Ship Positions

Mercur 301

Last reported at 2018-Jul-19 21:10 UTC. Time now 2018-Jul-21 09:44 UTC.
Position N 44°30' E 022°12'.

Length 35 m; draft 2.6 m.

Type: Ship. MMSI: 264162351.

Date/timePositionNaut miles runAvg speedWind from/ knotsBaromVisibWave heightAir tempDewpointWater temp
2018-Jul-19 21:10N 44°30' E 022°12'1 6.6
2018-Jul-19 21:01N 44°29' E 022°12'3 5.7
2018-Jul-19 20:31N 44°28' E 022°08'3 6.3
2018-Jul-19 20:01N 44°31' E 022°05'3 6.2
2018-Jul-19 19:30N 44°33' E 022°02'16 5.9
2018-Jul-19 16:52N 44°40' E 021°42'2 6.3
2018-Jul-19 16:31N 44°41' E 021°40'3 6.2
2018-Jul-19 16:00N 44°43' E 021°37'3 6.4
2018-Jul-19 15:30N 44°46' E 021°34'2 4.3
2018-Jul-19 14:57N 44°46' E 021°31'0 0.1
2018-Jul-19 09:40N 44°46' E 021°31'0 1.8
2018-Jul-19 09:28N 44°46' E 021°31'2 3.4
2018-Jul-19 08:59N 44°46' E 021°28'11 5.3
2018-Jul-19 06:56N 44°47' E 021°13'3 6.4
2018-Jul-19 06:27N 44°45' E 021°09'3 5.9
2018-Jul-19 06:01N 44°44' E 021°06'3 6.0
2018-Jul-19 05:31N 44°43' E 021°02'3 5.9
2018-Jul-19 05:00N 44°42' E 020°58'1 0.1
2018-Jul-18 22:04N 44°42' E 020°58'0 0.4
2018-Jul-18 21:58N 44°42' E 020°58'0 0.7
2018-Jul-18 21:30N 44°42' E 020°58'2 4.3
2018-Jul-18 21:00N 44°40' E 020°56'0 0.1
2018-Jul-18 20:30N 44°40' E 020°56'0 0.6
2018-Jul-18 20:00N 44°40' E 020°55'0 0.7
2018-Jul-18 19:31N 44°40' E 020°56'0 0.3
2018-Jul-18 19:00N 44°41' E 020°56'2 4.3
2018-Jul-18 18:30N 44°40' E 020°53'3 6.1
2018-Jul-18 18:00N 44°39' E 020°49'3 5.7
2018-Jul-18 17:30N 44°40' E 020°45'3 5.9
2018-Jul-18 17:00N 44°42' E 020°42'3 5.9
2018-Jul-18 16:31N 44°45' E 020°39'3 5.3
2018-Jul-18 16:00N 44°47' E 020°38'3 5.8
2018-Jul-18 15:30N 44°50' E 020°39'3 5.3
2018-Jul-18 15:00N 44°51' E 020°36'3 5.7
2018-Jul-18 14:30N 44°50' E 020°32'6 5.6
2018-Jul-18 13:30N 44°51' E 020°25'3 5.9
2018-Jul-18 13:01N 44°53' E 020°21'3 5.8
2018-Jul-18 12:30N 44°56' E 020°19'3 6.0
2018-Jul-18 12:01N 44°58' E 020°17'3 5.2
2018-Jul-18 11:30N 45°00' E 020°20'6 5.0
2018-Jul-18 10:17N 45°06' E 020°18'4 6.2
2018-Jul-18 09:41N 45°09' E 020°15'1 6.3
2018-Jul-18 09:31N 45°10' E 020°14'3 6.0
2018-Jul-18 09:00N 45°11' E 020°10'3 6.2
2018-Jul-18 08:31N 45°10' E 020°06'3 6.2
2018-Jul-18 08:01N 45°10' E 020°02'3 5.8
2018-Jul-18 07:30N 45°11' E 019°58'3 5.9
2018-Jul-18 07:00N 45°14' E 019°55'2 3.7
2018-Jul-18 06:31N 45°15' E 019°54'0 0.1
2018-Jul-18 06:01N 45°15' E 019°54'0 0.3
2018-Jul-18 05:31N 45°15' E 019°54'0 0.3
2018-Jul-18 05:01N 45°15' E 019°54'2 3.9
2018-Jul-18 04:30N 45°14' E 019°51'2 3.1
2018-Jul-18 04:00N 45°13' E 019°50'3 5.3
2018-Jul-18 03:31N 45°16' E 019°52'2 3.3
2018-Jul-18 03:01N 45°15' E 019°54'2 3.8
2018-Jul-18 02:30N 45°14' E 019°51'2 3.7
2018-Jul-18 01:59N 45°13' E 019°49'0 0.0
2018-Jul-18 01:29N 45°13' E 019°49'0 0.0
2018-Jul-18 00:59N 45°13' E 019°49'0 0.0
2018-Jul-18 00:26N 45°13' E 019°49'0 0.0
2018-Jul-17 23:59N 45°13' E 019°49'0 0.0
2018-Jul-17 23:29N 45°13' E 019°49'0 0.0
2018-Jul-17 22:59N 45°13' E 019°49'0 0.0
2018-Jul-17 22:29N 45°13' E 019°49'0 0.0
2018-Jul-17 21:59N 45°13' E 019°49'0 0.0
2018-Jul-17 21:29N 45°13' E 019°49'0 0.0
2018-Jul-17 20:59N 45°13' E 019°49'0 0.0
2018-Jul-17 20:29N 45°13' E 019°49'1 1.9
2018-Jul-17 20:01N 45°14' E 019°50'3 5.2
2018-Jul-17 19:31N 45°16' E 019°53'1 1.7
2018-Jul-17 19:01N 45°15' E 019°54'3 6.0
2018-Jul-17 18:31N 45°14' E 019°50'1 1.4
2018-Jul-17 18:00N 45°13' E 019°49'0 0.2
2018-Jul-17 17:30N 45°13' E 019°49'1 2.4
2018-Jul-17 17:00N 45°13' E 019°48'3 5.4
2018-Jul-17 16:31N 45°14' E 019°44'4 6.3
2018-Jul-17 15:52N 45°13' E 019°38'2 6.4
2018-Jul-17 15:30N 45°13' E 019°35'3 5.8
2018-Jul-17 14:55N 45°15' E 019°32'3 6.4
2018-Jul-17 14:30N 45°14' E 019°29'3 6.3
2018-Jul-17 14:01N 45°14' E 019°24'3 6.4
2018-Jul-17 13:31N 45°14' E 019°20'3 6.1
2018-Jul-17 13:01N 45°15' E 019°15'3 6.4
2018-Jul-17 12:30N 45°16' E 019°11'3 6.5
2018-Jul-17 12:00N 45°17' E 019°07'3 5.7
2018-Jul-17 11:30N 45°20' E 019°06'3 6.0
2018-Jul-17 11:00N 45°21' E 019°01'3 6.3
2018-Jul-17 10:30N 45°23' E 018°58'3 5.5
2018-Jul-17 10:00N 45°24' E 019°01'3 5.3
2018-Jul-17 09:30N 45°27' E 018°59'3 6.1
2018-Jul-17 09:01N 45°29' E 018°60'3 5.5
2018-Jul-17 08:30N 45°29' E 019°04'2 5.0
2018-Jul-17 08:01N 45°31' E 019°06'3 5.9
2018-Jul-17 07:30N 45°32' E 019°02'2 3.2
2018-Jul-17 07:00N 45°32' E 018°60'3 5.5
2018-Jul-17 06:30N 45°33' E 018°56'4 4.4
2018-Jul-17 05:35N 45°37' E 018°54'0 5.4
2018-Jul-17 05:30N 45°37' E 018°54'2 5.0
2018-Jul-17 05:01N 45°39' E 018°57'3 4.1
2018-Jul-17 04:12N 45°42' E 018°55'1 5.9
2018-Jul-17 04:01N 45°43' E 018°54'23 1.1
2018-Jul-16 06:45N 46°05' E 018°46'2 5.4
2018-Jul-16 06:18N 46°07' E 018°48'2 5.8
2018-Jul-16 06:00N 46°08' E 018°50'3 4.6
2018-Jul-16 05:27N 46°10' E 018°52'  
2018-Jul-12 07:06N 46°00' E 018°41'0 0.7
2018-Jul-12 07:00N 46°00' E 018°41'0 0.0
2018-Jul-12 06:30N 46°00' E 018°41'0 0.0
2018-Jul-12 06:00N 46°00' E 018°41'0 0.0
2018-Jul-12 05:30N 46°00' E 018°41'0 0.0
2018-Jul-12 05:00N 46°00' E 018°41'0 0.0
2018-Jul-12 04:30N 46°00' E 018°41'0 0.0
2018-Jul-12 04:00N 46°00' E 018°41'0 0.0
2018-Jul-12 03:30N 46°00' E 018°41'0 0.0
2018-Jul-12 02:58N 46°00' E 018°41'0 0.0
2018-Jul-12 02:30N 46°00' E 018°41'0 0.0
2018-Jul-12 01:58N 46°00' E 018°41'0 0.0
2018-Jul-12 01:30N 46°00' E 018°41'0 0.0
2018-Jul-12 01:00N 46°00' E 018°41'0 0.0
2018-Jul-12 00:30N 46°00' E 018°41'2 3.1
2018-Jul-12 00:00N 45°59' E 018°43'2 3.7
2018-Jul-11 23:29N 45°58' E 018°45'2 3.5
2018-Jul-11 22:57N 45°56' E 018°46'2 3.7
2018-Jul-11 22:31N 45°55' E 018°48'2 3.2
2018-Jul-11 22:01N 45°54' E 018°50'2 3.9
2018-Jul-11 21:30N 45°52' E 018°50'2 3.3
2018-Jul-11 21:00N 45°51' E 018°51'2 4.0
2018-Jul-11 20:30N 45°49' E 018°51'2 3.6
2018-Jul-11 20:01N 45°47' E 018°52'2 3.3
2018-Jul-11 19:31N 45°46' E 018°54'2 3.9
2018-Jul-11 19:01N 45°44' E 018°54'2 3.9
2018-Jul-11 18:30N 45°42' E 018°55'2 3.8
2018-Jul-11 18:01N 45°41' E 018°57'1 2.9
2018-Jul-11 17:31N 45°39' E 018°58'2 4.2
2018-Jul-11 17:01N 45°38' E 018°56'2 3.4
2018-Jul-11 16:31N 45°36' E 018°54'2 3.2
2018-Jul-11 16:01N 45°35' E 018°54'2 3.3
2018-Jul-11 15:31N 45°33' E 018°54'2 3.7
2018-Jul-11 15:01N 45°32' E 018°57'2 3.6
2018-Jul-11 14:31N 45°32' E 018°59'2 3.5
2018-Jul-11 14:01N 45°33' E 019°01'2 3.3
2018-Jul-11 13:30N 45°32' E 019°02'2 3.6
2018-Jul-11 13:01N 45°32' E 019°05'2 3.4
2018-Jul-11 12:31N 45°30' E 019°06'2 3.6
2018-Jul-11 12:01N 45°29' E 019°04'2 4.1
2018-Jul-11 11:31N 45°29' E 019°01'2 3.0
2018-Jul-11 11:01N 45°29' E 018°59'2 3.8
2018-Jul-11 10:31N 45°27' E 018°59'2 3.6
2018-Jul-11 10:00N 45°26' E 019°01'0 0.3
2018-Jul-11 09:31N 45°26' E 019°01'2 3.2
2018-Jul-11 09:00N 45°24' E 019°01'2 3.7
2018-Jul-11 08:31N 45°24' E 018°58'2 3.3
2018-Jul-11 08:00N 45°22' E 018°59'0 0.9
2018-Jul-11 07:30N 45°22' E 018°60'0 0.6
2018-Jul-11 07:00N 45°22' E 018°59'0 0.0
2018-Jul-11 06:30N 45°22' E 018°59'0 0.0
2018-Jul-11 06:00N 45°22' E 018°59'0 0.0
2018-Jul-11 05:30N 45°22' E 018°59'0 0.3
2018-Jul-11 04:56N 45°22' E 018°59'0 0.2
2018-Jul-11 04:30N 45°22' E 018°60'0 0.1
2018-Jul-11 04:00N 45°22' E 018°60'0 0.0
2018-Jul-11 03:31N 45°22' E 018°60'0 0.0
2018-Jul-11 03:00N 45°22' E 018°60'0 0.0
2018-Jul-11 02:30N 45°22' E 018°60'0 0.0
2018-Jul-11 02:01N 45°22' E 018°60'0 0.0
2018-Jul-11 01:31N 45°22' E 018°60'0 0.0
2018-Jul-11 01:00N 45°22' E 018°60'0 0.0
2018-Jul-11 00:30N 45°22' E 018°60'0 0.0
2018-Jul-11 00:00N 45°22' E 018°60'0 0.0
2018-Jul-10 23:31N 45°22' E 018°60'0 0.0
2018-Jul-10 23:00N 45°22' E 018°60'0 0.0
2018-Jul-10 22:30N 45°22' E 018°60'0 0.0
2018-Jul-10 22:00N 45°22' E 018°60'0 0.2
2018-Jul-10 21:30N 45°22' E 018°60'2 3.5
2018-Jul-10 21:00N 45°21' E 019°02'2 4.1
2018-Jul-10 20:31N 45°21' E 019°05'2 3.4
2018-Jul-10 20:00N 45°19' E 019°06'2 3.3
2018-Jul-10 19:28N 45°18' E 019°07'2 3.9
2018-Jul-10 19:00N 45°17' E 019°09'2 3.7
2018-Jul-10 18:30N 45°16' E 019°12'2 3.8
2018-Jul-10 18:00N 45°15' E 019°14'2 3.3
2018-Jul-10 17:30N 45°14' E 019°16'2 3.8
2018-Jul-10 17:00N 45°14' E 019°19'2 3.9
2018-Jul-10 16:30N 45°14' E 019°21'2 3.9
2018-Jul-10 16:01N 45°14' E 019°24'4 3.7
2018-Jul-10 14:52N 45°15' E 019°30'1 3.7
2018-Jul-10 14:30N 45°15' E 019°32'4 2.9
2018-Jul-10 13:07N 45°13' E 019°36'0 4.0
2018-Jul-10 13:00N 45°13' E 019°37'2 3.6
2018-Jul-10 12:30N 45°13' E 019°40'2 3.5
2018-Jul-10 12:01N 45°14' E 019°42'2 3.5
2018-Jul-10 11:31N 45°14' E 019°44'2 3.4
2018-Jul-10 11:00N 45°13' E 019°47'2 3.4
2018-Jul-10 10:31N 45°13' E 019°49'1 1.1
2018-Jul-10 10:01N 45°14' E 019°50'2 4.2
2018-Jul-10 09:31N 45°15' E 019°51'0 0.0
2018-Jul-10 09:01N 45°15' E 019°51'0 0.0
2018-Jul-10 08:30N 45°15' E 019°51'0 0.0
2018-Jul-10 08:01N 45°15' E 019°51'0 0.0
2018-Jul-10 07:31N 45°15' E 019°51'1 1.8
2018-Jul-10 07:01N 45°14' E 019°52'2 3.3
2018-Jul-10 06:30N 45°14' E 019°50'0 0.0
2018-Jul-10 06:01N 45°14' E 019°50'0 0.0
2018-Jul-10 05:30N 45°14' E 019°50'0 0.0
2018-Jul-10 05:01N 45°14' E 019°50'0 0.0
2018-Jul-10 04:31N 45°14' E 019°50'0 0.0
2018-Jul-10 04:01N 45°14' E 019°50'0 0.0
2018-Jul-10 03:31N 45°14' E 019°50'0 0.0
2018-Jul-10 03:01N 45°14' E 019°50'0 0.0
2018-Jul-10 02:31N 45°14' E 019°50'0 0.0
2018-Jul-10 01:55N 45°14' E 019°50'0 0.0
2018-Jul-10 01:31N 45°14' E 019°50'0 0.0
2018-Jul-10 01:01N 45°14' E 019°50'0 0.0
2018-Jul-10 00:30N 45°14' E 019°50'0 0.0
2018-Jul-10 00:01N 45°14' E 019°50'0 0.0
2018-Jul-09 23:31N 45°14' E 019°50'0 0.0
2018-Jul-09 23:01N 45°14' E 019°50'0 0.0
2018-Jul-09 22:30N 45°14' E 019°50'0 0.0
2018-Jul-09 22:01N 45°14' E 019°50'0 0.0
2018-Jul-09 21:30N 45°14' E 019°50'  

Dump ship's entire track history